sensor_id;sensor_type;location;lat;lon;timestamp;P1;durP1;ratioP1;P2;durP2;ratioP2
819;SDS011;392;48.838;2.322;2023-03-04T00:02:02;30.55;;;22.60;;
819;SDS011;392;48.838;2.322;2023-03-04T00:04:29;33.03;;;23.10;;
819;SDS011;392;48.838;2.322;2023-03-04T00:06:57;32.47;;;23.70;;
819;SDS011;392;48.838;2.322;2023-03-04T00:09:24;30.48;;;22.50;;
819;SDS011;392;48.838;2.322;2023-03-04T00:11:53;31.45;;;23.25;;
819;SDS011;392;48.838;2.322;2023-03-04T00:14:20;31.20;;;23.13;;
819;SDS011;392;48.838;2.322;2023-03-04T00:16:48;30.45;;;22.35;;
819;SDS011;392;48.838;2.322;2023-03-04T00:19:15;29.98;;;22.15;;
819;SDS011;392;48.838;2.322;2023-03-04T00:21:42;29.33;;;22.73;;
819;SDS011;392;48.838;2.322;2023-03-04T00:24:10;30.80;;;22.20;;
819;SDS011;392;48.838;2.322;2023-03-04T00:26:37;30.92;;;23.10;;
819;SDS011;392;48.838;2.322;2023-03-04T00:29:06;30.87;;;23.30;;
819;SDS011;392;48.838;2.322;2023-03-04T00:31:33;31.40;;;23.80;;
819;SDS011;392;48.838;2.322;2023-03-04T00:34:01;32.13;;;22.90;;
819;SDS011;392;48.838;2.322;2023-03-04T00:36:28;32.22;;;21.92;;
819;SDS011;392;48.838;2.322;2023-03-04T00:38:56;34.25;;;23.35;;
819;SDS011;392;48.838;2.322;2023-03-04T00:41:23;35.83;;;23.13;;
819;SDS011;392;48.838;2.322;2023-03-04T00:43:50;33.47;;;23.88;;
819;SDS011;392;48.838;2.322;2023-03-04T00:46:19;28.05;;;21.80;;
819;SDS011;392;48.838;2.322;2023-03-04T00:48:46;31.45;;;22.77;;
819;SDS011;392;48.838;2.322;2023-03-04T00:51:14;32.15;;;23.50;;
819;SDS011;392;48.838;2.322;2023-03-04T00:53:41;32.22;;;23.73;;
819;SDS011;392;48.838;2.322;2023-03-04T00:56:09;32.50;;;24.40;;
819;SDS011;392;48.838;2.322;2023-03-04T00:58:36;32.30;;;23.87;;
819;SDS011;392;48.838;2.322;2023-03-04T01:01:04;33.13;;;24.55;;
819;SDS011;392;48.838;2.322;2023-03-04T01:03:33;32.38;;;24.35;;
819;SDS011;392;48.838;2.322;2023-03-04T01:06:01;31.27;;;23.65;;
819;SDS011;392;48.838;2.322;2023-03-04T01:08:29;34.37;;;24.80;;
819;SDS011;392;48.838;2.322;2023-03-04T01:10:56;38.45;;;25.75;;
819;SDS011;392;48.838;2.322;2023-03-04T01:13:24;33.08;;;23.92;;
819;SDS011;392;48.838;2.322;2023-03-04T01:15:51;33.88;;;24.77;;
819;SDS011;392;48.838;2.322;2023-03-04T01:18:20;36.70;;;26.05;;
819;SDS011;392;48.838;2.322;2023-03-04T01:20:49;32.67;;;25.10;;
819;SDS011;392;48.838;2.322;2023-03-04T01:23:16;37.17;;;25.05;;
819;SDS011;392;48.838;2.322;2023-03-04T01:25:44;36.78;;;26.23;;
819;SDS011;392;48.838;2.322;2023-03-04T01:28:11;32.55;;;24.77;;
819;SDS011;392;48.838;2.322;2023-03-04T01:30:39;34.72;;;25.15;;
819;SDS011;392;48.838;2.322;2023-03-04T01:33:07;35.08;;;25.80;;
819;SDS011;392;48.838;2.322;2023-03-04T01:35:34;36.53;;;25.85;;
819;SDS011;392;48.838;2.322;2023-03-04T01:38:03;36.90;;;26.75;;
819;SDS011;392;48.838;2.322;2023-03-04T01:40:30;35.92;;;27.25;;
819;SDS011;392;48.838;2.322;2023-03-04T01:42:58;31.85;;;25.13;;
819;SDS011;392;48.838;2.322;2023-03-04T01:45:25;34.50;;;25.85;;
819;SDS011;392;48.838;2.322;2023-03-04T01:47:53;34.47;;;25.42;;
819;SDS011;392;48.838;2.322;2023-03-04T01:50:21;34.05;;;26.15;;
819;SDS011;392;48.838;2.322;2023-03-04T01:52:54;36.17;;;26.70;;
819;SDS011;392;48.838;2.322;2023-03-04T01:55:23;35.95;;;26.65;;
819;SDS011;392;48.838;2.322;2023-03-04T01:57:50;35.78;;;26.80;;
819;SDS011;392;48.838;2.322;2023-03-04T02:00:20;33.45;;;25.27;;
819;SDS011;392;48.838;2.322;2023-03-04T02:02:52;34.92;;;26.00;;
819;SDS011;392;48.838;2.322;2023-03-04T02:05:23;36.70;;;26.65;;
819;SDS011;392;48.838;2.322;2023-03-04T02:07:52;38.55;;;25.63;;
819;SDS011;392;48.838;2.322;2023-03-04T02:10:22;33.75;;;26.55;;
819;SDS011;392;48.838;2.322;2023-03-04T02:12:50;34.08;;;25.10;;
819;SDS011;392;48.838;2.322;2023-03-04T02:15:18;36.50;;;27.17;;
819;SDS011;392;48.838;2.322;2023-03-04T02:17:46;36.50;;;25.83;;
819;SDS011;392;48.838;2.322;2023-03-04T02:20:19;34.22;;;26.77;;
819;SDS011;392;48.838;2.322;2023-03-04T02:23:02;34.17;;;26.08;;
819;SDS011;392;48.838;2.322;2023-03-04T02:25:41;35.15;;;27.02;;
819;SDS011;392;48.838;2.322;2023-03-04T02:28:16;33.47;;;25.25;;
819;SDS011;392;48.838;2.322;2023-03-04T02:30:43;35.10;;;27.42;;
819;SDS011;392;48.838;2.322;2023-03-04T02:33:15;33.35;;;26.33;;
819;SDS011;392;48.838;2.322;2023-03-04T02:35:44;35.55;;;26.27;;
819;SDS011;392;48.838;2.322;2023-03-04T02:38:12;36.10;;;26.00;;
819;SDS011;392;48.838;2.322;2023-03-04T02:40:41;36.03;;;26.33;;
819;SDS011;392;48.838;2.322;2023-03-04T02:43:13;35.60;;;25.90;;
819;SDS011;392;48.838;2.322;2023-03-04T02:45:43;33.78;;;25.75;;
819;SDS011;392;48.838;2.322;2023-03-04T02:48:13;33.47;;;24.95;;
819;SDS011;392;48.838;2.322;2023-03-04T02:50:45;35.25;;;26.40;;
819;SDS011;392;48.838;2.322;2023-03-04T02:53:15;34.88;;;25.35;;
819;SDS011;392;48.838;2.322;2023-03-04T02:55:45;30.83;;;25.15;;
819;SDS011;392;48.838;2.322;2023-03-04T02:58:13;30.40;;;23.92;;
819;SDS011;392;48.838;2.322;2023-03-04T03:00:42;31.13;;;25.10;;
819;SDS011;392;48.838;2.322;2023-03-04T03:03:10;40.08;;;25.73;;
819;SDS011;392;48.838;2.322;2023-03-04T03:05:37;34.55;;;25.50;;
819;SDS011;392;48.838;2.322;2023-03-04T03:08:06;32.00;;;25.52;;
819;SDS011;392;48.838;2.322;2023-03-04T03:10:33;35.45;;;26.48;;
819;SDS011;392;48.838;2.322;2023-03-04T03:13:01;37.67;;;26.60;;
819;SDS011;392;48.838;2.322;2023-03-04T03:15:30;35.05;;;25.33;;
819;SDS011;392;48.838;2.322;2023-03-04T03:17:57;35.13;;;25.20;;
819;SDS011;392;48.838;2.322;2023-03-04T03:20:24;35.63;;;27.27;;
819;SDS011;392;48.838;2.322;2023-03-04T03:22:52;35.22;;;25.90;;
819;SDS011;392;48.838;2.322;2023-03-04T03:25:19;35.50;;;26.17;;
819;SDS011;392;48.838;2.322;2023-03-04T03:27:46;34.95;;;26.85;;
819;SDS011;392;48.838;2.322;2023-03-04T03:30:15;36.20;;;26.35;;
819;SDS011;392;48.838;2.322;2023-03-04T03:32:44;34.58;;;27.05;;
819;SDS011;392;48.838;2.322;2023-03-04T03:35:12;37.17;;;26.13;;
819;SDS011;392;48.838;2.322;2023-03-04T03:37:39;35.80;;;26.55;;
819;SDS011;392;48.838;2.322;2023-03-04T03:40:07;37.22;;;26.95;;
819;SDS011;392;48.838;2.322;2023-03-04T03:42:37;37.47;;;26.42;;
819;SDS011;392;48.838;2.322;2023-03-04T03:45:04;35.65;;;26.45;;
819;SDS011;392;48.838;2.322;2023-03-04T03:47:33;37.58;;;27.35;;
819;SDS011;392;48.838;2.322;2023-03-04T03:50:01;37.42;;;26.90;;
819;SDS011;392;48.838;2.322;2023-03-04T03:52:29;37.88;;;27.98;;
819;SDS011;392;48.838;2.322;2023-03-04T03:54:57;35.50;;;25.55;;
819;SDS011;392;48.838;2.322;2023-03-04T03:57:26;35.67;;;26.10;;
819;SDS011;392;48.838;2.322;2023-03-04T03:59:53;38.63;;;26.33;;
819;SDS011;392;48.838;2.322;2023-03-04T04:02:21;33.08;;;25.65;;
819;SDS011;392;48.838;2.322;2023-03-04T04:04:49;35.58;;;27.33;;
819;SDS011;392;48.838;2.322;2023-03-04T04:07:17;34.42;;;24.65;;
819;SDS011;392;48.838;2.322;2023-03-04T04:09:44;31.55;;;25.90;;
819;SDS011;392;48.838;2.322;2023-03-04T04:12:12;35.00;;;25.05;;
819;SDS011;392;48.838;2.322;2023-03-04T04:14:43;33.53;;;25.23;;
819;SDS011;392;48.838;2.322;2023-03-04T04:17:11;34.58;;;24.90;;
819;SDS011;392;48.838;2.322;2023-03-04T04:19:39;35.20;;;25.25;;
819;SDS011;392;48.838;2.322;2023-03-04T04:22:07;32.03;;;23.65;;
819;SDS011;392;48.838;2.322;2023-03-04T04:24:40;33.42;;;24.92;;
819;SDS011;392;48.838;2.322;2023-03-04T04:27:08;33.95;;;23.88;;
819;SDS011;392;48.838;2.322;2023-03-04T04:29:35;32.25;;;24.73;;
819;SDS011;392;48.838;2.322;2023-03-04T04:32:03;35.08;;;25.38;;
819;SDS011;392;48.838;2.322;2023-03-04T04:34:31;33.17;;;25.20;;
819;SDS011;392;48.838;2.322;2023-03-04T04:36:58;33.65;;;23.80;;
819;SDS011;392;48.838;2.322;2023-03-04T04:39:25;33.92;;;24.52;;
819;SDS011;392;48.838;2.322;2023-03-04T04:41:54;34.00;;;24.50;;
819;SDS011;392;48.838;2.322;2023-03-04T04:44:21;31.27;;;23.95;;
819;SDS011;392;48.838;2.322;2023-03-04T04:46:49;33.05;;;24.00;;
819;SDS011;392;48.838;2.322;2023-03-04T04:49:16;31.33;;;23.73;;
819;SDS011;392;48.838;2.322;2023-03-04T04:51:44;32.00;;;24.35;;
819;SDS011;392;48.838;2.322;2023-03-04T04:54:12;35.58;;;24.52;;
819;SDS011;392;48.838;2.322;2023-03-04T04:56:40;32.88;;;24.60;;
819;SDS011;392;48.838;2.322;2023-03-04T04:59:09;32.30;;;23.75;;
819;SDS011;392;48.838;2.322;2023-03-04T05:01:36;35.50;;;24.80;;
819;SDS011;392;48.838;2.322;2023-03-04T05:04:03;32.05;;;23.75;;
819;SDS011;392;48.838;2.322;2023-03-04T05:06:31;32.50;;;23.73;;
819;SDS011;392;48.838;2.322;2023-03-04T05:08:58;32.63;;;22.90;;
819;SDS011;392;48.838;2.322;2023-03-04T05:11:26;30.33;;;22.80;;
819;SDS011;392;48.838;2.322;2023-03-04T05:13:53;31.75;;;23.60;;
819;SDS011;392;48.838;2.322;2023-03-04T05:16:22;29.85;;;22.63;;
819;SDS011;392;48.838;2.322;2023-03-04T05:18:49;33.70;;;22.40;;
819;SDS011;392;48.838;2.322;2023-03-04T05:21:17;29.20;;;22.20;;
819;SDS011;392;48.838;2.322;2023-03-04T05:23:44;32.72;;;22.98;;
819;SDS011;392;48.838;2.322;2023-03-04T05:26:12;30.35;;;22.80;;
819;SDS011;392;48.838;2.322;2023-03-04T05:28:41;32.03;;;22.70;;
819;SDS011;392;48.838;2.322;2023-03-04T05:31:08;32.60;;;23.08;;
819;SDS011;392;48.838;2.322;2023-03-04T05:33:38;31.88;;;24.73;;
819;SDS011;392;48.838;2.322;2023-03-04T05:36:06;32.03;;;23.25;;
819;SDS011;392;48.838;2.322;2023-03-04T05:38:34;30.20;;;23.10;;
819;SDS011;392;48.838;2.322;2023-03-04T05:41:03;31.65;;;22.63;;
819;SDS011;392;48.838;2.322;2023-03-04T05:43:32;31.33;;;23.52;;
819;SDS011;392;48.838;2.322;2023-03-04T05:46:00;33.60;;;23.40;;
819;SDS011;392;48.838;2.322;2023-03-04T05:48:28;31.98;;;22.48;;
819;SDS011;392;48.838;2.322;2023-03-04T05:50:58;31.15;;;22.30;;
819;SDS011;392;48.838;2.322;2023-03-04T05:53:27;33.47;;;23.20;;
819;SDS011;392;48.838;2.322;2023-03-04T05:55:55;30.95;;;22.27;;
819;SDS011;392;48.838;2.322;2023-03-04T05:58:23;29.65;;;22.35;;
819;SDS011;392;48.838;2.322;2023-03-04T06:00:51;31.70;;;22.45;;
819;SDS011;392;48.838;2.322;2023-03-04T06:03:19;31.73;;;23.05;;
819;SDS011;392;48.838;2.322;2023-03-04T06:05:47;33.05;;;22.92;;
819;SDS011;392;48.838;2.322;2023-03-04T06:08:16;32.40;;;22.95;;
819;SDS011;392;48.838;2.322;2023-03-04T06:10:43;33.95;;;23.27;;
819;SDS011;392;48.838;2.322;2023-03-04T06:13:11;32.72;;;22.95;;
819;SDS011;392;48.838;2.322;2023-03-04T06:15:38;33.83;;;23.48;;
819;SDS011;392;48.838;2.322;2023-03-04T06:18:06;30.60;;;21.23;;
819;SDS011;392;48.838;2.322;2023-03-04T06:20:33;29.92;;;21.67;;
819;SDS011;392;48.838;2.322;2023-03-04T06:23:01;31.80;;;22.55;;
819;SDS011;392;48.838;2.322;2023-03-04T06:25:30;30.38;;;22.05;;
819;SDS011;392;48.838;2.322;2023-03-04T06:27:58;34.72;;;21.52;;
819;SDS011;392;48.838;2.322;2023-03-04T06:30:25;35.03;;;23.05;;
819;SDS011;392;48.838;2.322;2023-03-04T06:32:54;32.20;;;22.60;;
819;SDS011;392;48.838;2.322;2023-03-04T06:35:21;30.73;;;22.00;;
819;SDS011;392;48.838;2.322;2023-03-04T06:37:49;33.20;;;23.70;;
819;SDS011;392;48.838;2.322;2023-03-04T06:40:16;30.88;;;22.38;;
819;SDS011;392;48.838;2.322;2023-03-04T06:42:45;32.85;;;23.88;;
819;SDS011;392;48.838;2.322;2023-03-04T06:45:12;29.70;;;21.95;;
819;SDS011;392;48.838;2.322;2023-03-04T06:47:39;29.63;;;21.60;;
819;SDS011;392;48.838;2.322;2023-03-04T06:50:07;29.15;;;20.13;;
819;SDS011;392;48.838;2.322;2023-03-04T06:52:37;32.22;;;22.30;;
819;SDS011;392;48.838;2.322;2023-03-04T06:55:04;28.83;;;21.38;;
819;SDS011;392;48.838;2.322;2023-03-04T06:57:34;29.95;;;21.73;;
819;SDS011;392;48.838;2.322;2023-03-04T07:00:03;26.45;;;19.73;;
819;SDS011;392;48.838;2.322;2023-03-04T07:02:32;27.52;;;20.42;;
819;SDS011;392;48.838;2.322;2023-03-04T07:04:59;28.50;;;21.02;;
819;SDS011;392;48.838;2.322;2023-03-04T07:07:26;26.73;;;19.77;;
819;SDS011;392;48.838;2.322;2023-03-04T07:09:54;27.45;;;21.02;;
819;SDS011;392;48.838;2.322;2023-03-04T07:12:21;28.30;;;20.33;;
819;SDS011;392;48.838;2.322;2023-03-04T07:14:48;26.40;;;20.25;;
819;SDS011;392;48.838;2.322;2023-03-04T07:17:17;24.27;;;19.17;;
819;SDS011;392;48.838;2.322;2023-03-04T07:19:44;33.03;;;20.67;;
819;SDS011;392;48.838;2.322;2023-03-04T07:22:11;27.60;;;20.33;;
819;SDS011;392;48.838;2.322;2023-03-04T07:24:39;27.63;;;19.38;;
819;SDS011;392;48.838;2.322;2023-03-04T07:27:06;26.08;;;19.23;;
819;SDS011;392;48.838;2.322;2023-03-04T07:29:34;28.50;;;20.40;;
819;SDS011;392;48.838;2.322;2023-03-04T07:32:01;29.35;;;21.15;;
819;SDS011;392;48.838;2.322;2023-03-04T07:34:34;28.48;;;20.75;;
819;SDS011;392;48.838;2.322;2023-03-04T07:37:02;28.55;;;20.77;;
819;SDS011;392;48.838;2.322;2023-03-04T07:39:29;28.88;;;21.10;;
819;SDS011;392;48.838;2.322;2023-03-04T07:41:57;29.92;;;21.48;;
819;SDS011;392;48.838;2.322;2023-03-04T07:44:24;30.00;;;20.95;;
819;SDS011;392;48.838;2.322;2023-03-04T07:46:51;27.23;;;20.05;;
819;SDS011;392;48.838;2.322;2023-03-04T07:49:18;29.92;;;20.90;;
819;SDS011;392;48.838;2.322;2023-03-04T07:51:47;25.25;;;19.40;;
819;SDS011;392;48.838;2.322;2023-03-04T07:54:14;26.98;;;19.70;;
819;SDS011;392;48.838;2.322;2023-03-04T07:56:44;28.80;;;21.45;;
819;SDS011;392;48.838;2.322;2023-03-04T07:59:12;29.73;;;21.00;;
819;SDS011;392;48.838;2.322;2023-03-04T08:01:39;28.55;;;20.05;;
819;SDS011;392;48.838;2.322;2023-03-04T08:04:06;29.92;;;20.73;;
819;SDS011;392;48.838;2.322;2023-03-04T08:06:34;29.70;;;21.58;;
819;SDS011;392;48.838;2.322;2023-03-04T08:09:03;31.27;;;21.08;;
819;SDS011;392;48.838;2.322;2023-03-04T08:11:33;29.08;;;20.30;;
819;SDS011;392;48.838;2.322;2023-03-04T08:14:02;29.88;;;20.83;;
819;SDS011;392;48.838;2.322;2023-03-04T08:16:30;29.75;;;19.80;;
819;SDS011;392;48.838;2.322;2023-03-04T08:19:01;30.60;;;20.98;;
819;SDS011;392;48.838;2.322;2023-03-04T08:21:31;29.35;;;19.48;;
819;SDS011;392;48.838;2.322;2023-03-04T08:23:59;27.95;;;20.40;;
819;SDS011;392;48.838;2.322;2023-03-04T08:26:34;26.52;;;19.55;;
819;SDS011;392;48.838;2.322;2023-03-04T08:29:06;24.70;;;18.15;;
819;SDS011;392;48.838;2.322;2023-03-04T08:31:36;25.27;;;19.02;;
819;SDS011;392;48.838;2.322;2023-03-04T08:34:03;31.77;;;20.77;;
819;SDS011;392;48.838;2.322;2023-03-04T08:36:31;24.30;;;18.40;;
819;SDS011;392;48.838;2.322;2023-03-04T08:38:59;24.85;;;18.77;;
819;SDS011;392;48.838;2.322;2023-03-04T08:41:27;26.50;;;21.17;;
819;SDS011;392;48.838;2.322;2023-03-04T08:43:56;27.90;;;19.25;;
819;SDS011;392;48.838;2.322;2023-03-04T08:46:23;27.70;;;18.23;;
819;SDS011;392;48.838;2.322;2023-03-04T08:48:51;27.43;;;19.60;;
819;SDS011;392;48.838;2.322;2023-03-04T08:51:18;26.45;;;18.27;;
819;SDS011;392;48.838;2.322;2023-03-04T08:53:46;23.77;;;17.20;;
819;SDS011;392;48.838;2.322;2023-03-04T08:56:13;25.17;;;17.27;;
819;SDS011;392;48.838;2.322;2023-03-04T08:58:41;24.75;;;16.85;;
819;SDS011;392;48.838;2.322;2023-03-04T09:01:10;21.47;;;16.43;;
819;SDS011;392;48.838;2.322;2023-03-04T09:03:40;24.17;;;17.83;;
819;SDS011;392;48.838;2.322;2023-03-04T09:06:09;20.80;;;16.80;;
819;SDS011;392;48.838;2.322;2023-03-04T09:08:39;26.10;;;17.20;;
819;SDS011;392;48.838;2.322;2023-03-04T09:11:08;24.93;;;15.93;;
819;SDS011;392;48.838;2.322;2023-03-04T09:13:36;22.43;;;16.57;;
819;SDS011;392;48.838;2.322;2023-03-04T09:16:07;19.13;;;14.50;;
819;SDS011;392;48.838;2.322;2023-03-04T09:18:38;20.60;;;14.67;;
819;SDS011;392;48.838;2.322;2023-03-04T09:21:06;20.15;;;15.18;;
819;SDS011;392;48.838;2.322;2023-03-04T09:23:34;19.85;;;14.43;;
819;SDS011;392;48.838;2.322;2023-03-04T09:26:12;21.00;;;15.13;;
819;SDS011;392;48.838;2.322;2023-03-04T09:28:45;21.13;;;15.30;;
819;SDS011;392;48.838;2.322;2023-03-04T09:31:17;19.67;;;14.75;;
819;SDS011;392;48.838;2.322;2023-03-04T09:33:44;19.73;;;14.43;;
819;SDS011;392;48.838;2.322;2023-03-04T09:36:13;22.38;;;14.50;;
819;SDS011;392;48.838;2.322;2023-03-04T09:38:41;20.95;;;15.38;;
819;SDS011;392;48.838;2.322;2023-03-04T09:41:12;21.87;;;14.43;;
819;SDS011;392;48.838;2.322;2023-03-04T09:43:43;21.40;;;16.20;;
819;SDS011;392;48.838;2.322;2023-03-04T09:46:13;21.00;;;15.95;;
819;SDS011;392;48.838;2.322;2023-03-04T09:48:48;25.77;;;15.93;;
819;SDS011;392;48.838;2.322;2023-03-04T09:51:18;22.00;;;15.50;;
819;SDS011;392;48.838;2.322;2023-03-04T09:53:53;22.85;;;15.63;;
819;SDS011;392;48.838;2.322;2023-03-04T09:56:32;24.73;;;15.80;;
819;SDS011;392;48.838;2.322;2023-03-04T09:59:04;28.00;;;15.95;;
819;SDS011;392;48.838;2.322;2023-03-04T10:01:44;24.25;;;15.90;;
819;SDS011;392;48.838;2.322;2023-03-04T10:04:16;20.35;;;15.93;;
819;SDS011;392;48.838;2.322;2023-03-04T10:06:51;22.98;;;16.15;;
819;SDS011;392;48.838;2.322;2023-03-04T10:09:20;23.33;;;15.47;;
819;SDS011;392;48.838;2.322;2023-03-04T10:11:54;21.07;;;16.23;;
819;SDS011;392;48.838;2.322;2023-03-04T10:14:30;23.33;;;17.13;;
819;SDS011;392;48.838;2.322;2023-03-04T10:17:04;26.90;;;17.50;;
819;SDS011;392;48.838;2.322;2023-03-04T10:19:43;22.83;;;17.00;;
819;SDS011;392;48.838;2.322;2023-03-04T10:22:22;22.33;;;16.13;;
819;SDS011;392;48.838;2.322;2023-03-04T10:24:57;23.10;;;17.17;;
819;SDS011;392;48.838;2.322;2023-03-04T10:27:31;23.08;;;17.30;;
819;SDS011;392;48.838;2.322;2023-03-04T10:29:58;25.63;;;17.60;;
819;SDS011;392;48.838;2.322;2023-03-04T10:32:27;27.67;;;18.07;;
819;SDS011;392;48.838;2.322;2023-03-04T10:34:55;22.00;;;16.67;;
819;SDS011;392;48.838;2.322;2023-03-04T10:37:22;24.60;;;17.70;;
819;SDS011;392;48.838;2.322;2023-03-04T10:39:49;24.70;;;17.73;;
819;SDS011;392;48.838;2.322;2023-03-04T10:42:25;23.60;;;17.10;;
819;SDS011;392;48.838;2.322;2023-03-04T10:45:01;23.60;;;17.20;;
819;SDS011;392;48.838;2.322;2023-03-04T10:47:30;24.50;;;18.30;;
819;SDS011;392;48.838;2.322;2023-03-04T10:50:00;27.20;;;18.17;;
819;SDS011;392;48.838;2.322;2023-03-04T10:52:30;24.37;;;17.37;;
819;SDS011;392;48.838;2.322;2023-03-04T10:55:01;27.70;;;18.90;;
819;SDS011;392;48.838;2.322;2023-03-04T10:57:33;26.73;;;18.70;;
819;SDS011;392;48.838;2.322;2023-03-04T11:00:17;23.47;;;18.03;;
819;SDS011;392;48.838;2.322;2023-03-04T11:05:50;23.10;;;17.30;;
819;SDS011;392;48.838;2.322;2023-03-04T11:08:19;23.53;;;17.53;;
819;SDS011;392;48.838;2.322;2023-03-04T11:10:49;23.67;;;17.00;;
819;SDS011;392;48.838;2.322;2023-03-04T11:13:18;25.20;;;16.63;;
819;SDS011;392;48.838;2.322;2023-03-04T11:15:50;21.33;;;12.93;;
819;SDS011;392;48.838;2.322;2023-03-04T11:18:21;27.17;;;16.10;;
819;SDS011;392;48.838;2.322;2023-03-04T11:20:54;22.53;;;15.10;;
819;SDS011;392;48.838;2.322;2023-03-04T11:23:25;22.77;;;15.53;;
819;SDS011;392;48.838;2.322;2023-03-04T11:26:00;23.17;;;15.90;;
819;SDS011;392;48.838;2.322;2023-03-04T11:28:34;23.10;;;15.10;;
819;SDS011;392;48.838;2.322;2023-03-04T11:31:09;21.60;;;15.10;;
819;SDS011;392;48.838;2.322;2023-03-04T11:33:42;21.37;;;15.17;;
819;SDS011;392;48.838;2.322;2023-03-04T11:36:19;22.50;;;15.03;;
819;SDS011;392;48.838;2.322;2023-03-04T11:38:56;19.97;;;15.23;;
819;SDS011;392;48.838;2.322;2023-03-04T11:41:25;21.33;;;15.77;;
819;SDS011;392;48.838;2.322;2023-03-04T11:43:58;24.47;;;15.80;;
819;SDS011;392;48.838;2.322;2023-03-04T11:46:38;23.50;;;15.73;;
819;SDS011;392;48.838;2.322;2023-03-04T11:56:02;23.23;;;15.90;;
819;SDS011;392;48.838;2.322;2023-03-04T11:58:47;28.43;;;15.70;;
819;SDS011;392;48.838;2.322;2023-03-04T12:01:58;25.30;;;16.27;;
819;SDS011;392;48.838;2.322;2023-03-04T12:04:44;23.17;;;16.37;;
819;SDS011;392;48.838;2.322;2023-03-04T12:11:04;20.70;;;15.10;;
819;SDS011;392;48.838;2.322;2023-03-04T12:13:50;23.47;;;15.70;;
819;SDS011;392;48.838;2.322;2023-03-04T12:16:51;19.80;;;13.90;;
819;SDS011;392;48.838;2.322;2023-03-04T12:23:09;24.20;;;15.73;;
819;SDS011;392;48.838;2.322;2023-03-04T12:25:51;23.70;;;15.93;;
819;SDS011;392;48.838;2.322;2023-03-04T12:28:39;25.33;;;15.47;;
819;SDS011;392;48.838;2.322;2023-03-04T12:31:31;18.97;;;14.17;;
819;SDS011;392;48.838;2.322;2023-03-04T12:37:19;18.47;;;13.63;;
819;SDS011;392;48.838;2.322;2023-03-04T12:40:02;23.50;;;15.30;;
819;SDS011;392;48.838;2.322;2023-03-04T12:42:44;21.37;;;14.93;;
819;SDS011;392;48.838;2.322;2023-03-04T12:45:29;20.80;;;14.73;;
819;SDS011;392;48.838;2.322;2023-03-04T12:48:08;21.80;;;15.87;;
819;SDS011;392;48.838;2.322;2023-03-04T12:50:53;17.90;;;12.83;;
819;SDS011;392;48.838;2.322;2023-03-04T12:53:37;16.80;;;13.27;;
819;SDS011;392;48.838;2.322;2023-03-04T12:56:15;19.27;;;14.00;;
819;SDS011;392;48.838;2.322;2023-03-04T12:58:49;18.30;;;14.10;;
819;SDS011;392;48.838;2.322;2023-03-04T13:01:20;18.40;;;13.60;;
819;SDS011;392;48.838;2.322;2023-03-04T13:03:55;16.93;;;13.50;;
819;SDS011;392;48.838;2.322;2023-03-04T13:06:30;16.70;;;11.90;;
819;SDS011;392;48.838;2.322;2023-03-04T13:09:08;17.97;;;12.00;;
819;SDS011;392;48.838;2.322;2023-03-04T13:11:49;22.30;;;11.37;;
819;SDS011;392;48.838;2.322;2023-03-04T13:14:26;17.80;;;12.20;;
819;SDS011;392;48.838;2.322;2023-03-04T13:17:00;18.80;;;11.33;;
819;SDS011;392;48.838;2.322;2023-03-04T13:22:52;15.60;;;11.07;;
819;SDS011;392;48.838;2.322;2023-03-04T13:25:29;18.70;;;13.00;;
819;SDS011;392;48.838;2.322;2023-03-04T13:33:56;14.37;;;10.17;;
819;SDS011;392;48.838;2.322;2023-03-04T13:36:27;13.93;;;10.03;;
819;SDS011;392;48.838;2.322;2023-03-04T13:38:59;12.70;;;10.20;;
819;SDS011;392;48.838;2.322;2023-03-04T13:41:29;13.57;;;9.97;;
819;SDS011;392;48.838;2.322;2023-03-04T13:44:00;12.27;;;9.63;;
819;SDS011;392;48.838;2.322;2023-03-04T13:46:39;16.00;;;10.37;;
819;SDS011;392;48.838;2.322;2023-03-04T13:49:15;14.50;;;10.73;;
819;SDS011;392;48.838;2.322;2023-03-04T13:51:47;13.80;;;9.10;;
819;SDS011;392;48.838;2.322;2023-03-04T13:54:15;15.30;;;9.73;;
819;SDS011;392;48.838;2.322;2023-03-04T13:57:09;15.40;;;9.60;;
819;SDS011;392;48.838;2.322;2023-03-04T13:59:43;13.83;;;9.53;;
819;SDS011;392;48.838;2.322;2023-03-04T14:02:13;12.37;;;9.30;;
819;SDS011;392;48.838;2.322;2023-03-04T14:04:46;12.77;;;10.00;;
819;SDS011;392;48.838;2.322;2023-03-04T14:07:23;12.13;;;9.37;;
819;SDS011;392;48.838;2.322;2023-03-04T14:09:54;11.20;;;8.30;;
819;SDS011;392;48.838;2.322;2023-03-04T14:12:24;13.17;;;9.23;;
819;SDS011;392;48.838;2.322;2023-03-04T14:14:55;12.40;;;8.67;;
819;SDS011;392;48.838;2.322;2023-03-04T14:17:25;16.60;;;9.20;;
819;SDS011;392;48.838;2.322;2023-03-04T14:19:57;10.57;;;8.37;;
819;SDS011;392;48.838;2.322;2023-03-04T14:22:27;12.37;;;8.60;;
819;SDS011;392;48.838;2.322;2023-03-04T14:24:59;9.17;;;7.77;;
819;SDS011;392;48.838;2.322;2023-03-04T14:27:29;9.03;;;7.10;;
819;SDS011;392;48.838;2.322;2023-03-04T14:30:01;11.30;;;8.30;;
819;SDS011;392;48.838;2.322;2023-03-04T14:32:31;12.40;;;8.80;;
819;SDS011;392;48.838;2.322;2023-03-04T14:35:02;12.77;;;8.30;;
819;SDS011;392;48.838;2.322;2023-03-04T14:37:33;9.23;;;6.73;;
819;SDS011;392;48.838;2.322;2023-03-04T14:40:09;11.17;;;6.87;;
819;SDS011;392;48.838;2.322;2023-03-04T14:42:46;9.70;;;6.93;;
819;SDS011;392;48.838;2.322;2023-03-04T14:45:16;11.23;;;7.27;;
819;SDS011;392;48.838;2.322;2023-03-04T14:47:44;10.93;;;7.30;;
819;SDS011;392;48.838;2.322;2023-03-04T14:50:14;8.63;;;7.73;;
819;SDS011;392;48.838;2.322;2023-03-04T14:52:44;8.17;;;7.37;;
819;SDS011;392;48.838;2.322;2023-03-04T14:55:20;12.57;;;8.33;;
819;SDS011;392;48.838;2.322;2023-03-04T14:57:49;11.43;;;7.23;;
819;SDS011;392;48.838;2.322;2023-03-04T15:00:24;8.40;;;7.33;;
819;SDS011;392;48.838;2.322;2023-03-04T15:02:58;7.83;;;7.03;;
819;SDS011;392;48.838;2.322;2023-03-04T15:05:29;10.23;;;7.27;;
819;SDS011;392;48.838;2.322;2023-03-04T15:07:59;10.63;;;7.10;;
819;SDS011;392;48.838;2.322;2023-03-04T15:10:30;12.90;;;7.70;;
819;SDS011;392;48.838;2.322;2023-03-04T15:13:00;10.37;;;7.40;;
819;SDS011;392;48.838;2.322;2023-03-04T15:15:38;10.83;;;7.33;;
819;SDS011;392;48.838;2.322;2023-03-04T15:18:16;8.97;;;7.43;;
819;SDS011;392;48.838;2.322;2023-03-04T15:20:57;16.50;;;8.50;;
819;SDS011;392;48.838;2.322;2023-03-04T15:23:26;9.50;;;8.40;;
819;SDS011;392;48.838;2.322;2023-03-04T15:25:56;8.10;;;7.30;;
819;SDS011;392;48.838;2.322;2023-03-04T15:28:26;8.47;;;7.33;;
819;SDS011;392;48.838;2.322;2023-03-04T15:30:59;11.00;;;7.60;;
819;SDS011;392;48.838;2.322;2023-03-04T15:33:26;9.20;;;8.30;;
819;SDS011;392;48.838;2.322;2023-03-04T15:35:55;8.00;;;7.20;;
819;SDS011;392;48.838;2.322;2023-03-04T15:38:27;7.43;;;6.73;;
819;SDS011;392;48.838;2.322;2023-03-04T15:40:55;6.93;;;6.43;;
819;SDS011;392;48.838;2.322;2023-03-04T15:43:24;7.57;;;6.80;;
819;SDS011;392;48.838;2.322;2023-03-04T15:45:52;8.90;;;7.10;;
819;SDS011;392;48.838;2.322;2023-03-04T15:48:19;7.90;;;7.07;;
819;SDS011;392;48.838;2.322;2023-03-04T15:50:47;9.43;;;7.13;;
819;SDS011;392;48.838;2.322;2023-03-04T15:53:24;9.73;;;7.30;;
819;SDS011;392;48.838;2.322;2023-03-04T15:55:57;7.93;;;7.13;;
819;SDS011;392;48.838;2.322;2023-03-04T15:58:25;8.47;;;7.10;;
819;SDS011;392;48.838;2.322;2023-03-04T16:00:54;9.77;;;7.60;;
819;SDS011;392;48.838;2.322;2023-03-04T16:03:21;11.63;;;7.90;;
819;SDS011;392;48.838;2.322;2023-03-04T16:05:49;8.57;;;7.70;;
819;SDS011;392;48.838;2.322;2023-03-04T16:08:18;9.27;;;6.60;;
819;SDS011;392;48.838;2.322;2023-03-04T16:10:48;10.20;;;6.77;;